sensor_id;sensor_type;location;lat;lon;timestamp;P1;durP1;ratioP1;P2;durP2;ratioP2
46815;SDS011;32787;53.316;8.670;2023-09-30T00:00:22;21.20;;;4.28;;
46815;SDS011;32787;53.316;8.670;2023-09-30T00:02:47;16.77;;;3.72;;
46815;SDS011;32787;53.316;8.670;2023-09-30T00:05:13;20.38;;;4.55;;
46815;SDS011;32787;53.316;8.670;2023-09-30T00:07:40;17.70;;;4.50;;
46815;SDS011;32787;53.316;8.670;2023-09-30T00:10:05;17.98;;;3.92;;
46815;SDS011;32787;53.316;8.670;2023-09-30T00:12:32;19.90;;;4.75;;
46815;SDS011;32787;53.316;8.670;2023-09-30T00:14:57;17.75;;;4.30;;
46815;SDS011;32787;53.316;8.670;2023-09-30T00:17:23;19.00;;;4.00;;
46815;SDS011;32787;53.316;8.670;2023-09-30T00:19:48;12.93;;;4.32;;
46815;SDS011;32787;53.316;8.670;2023-09-30T00:22:14;15.40;;;4.25;;
46815;SDS011;32787;53.316;8.670;2023-09-30T00:24:40;16.58;;;4.43;;
46815;SDS011;32787;53.316;8.670;2023-09-30T00:27:05;19.98;;;4.07;;
46815;SDS011;32787;53.316;8.670;2023-09-30T00:29:31;19.05;;;4.93;;
46815;SDS011;32787;53.316;8.670;2023-09-30T00:31:57;16.58;;;4.28;;
46815;SDS011;32787;53.316;8.670;2023-09-30T00:34:22;14.90;;;4.20;;
46815;SDS011;32787;53.316;8.670;2023-09-30T00:36:48;18.75;;;4.50;;
46815;SDS011;32787;53.316;8.670;2023-09-30T00:39:13;17.25;;;5.70;;
46815;SDS011;32787;53.316;8.670;2023-09-30T00:41:39;19.95;;;5.00;;
46815;SDS011;32787;53.316;8.670;2023-09-30T00:44:05;21.08;;;5.50;;
46815;SDS011;32787;53.316;8.670;2023-09-30T00:46:33;19.10;;;4.53;;
46815;SDS011;32787;53.316;8.670;2023-09-30T00:49:02;26.77;;;5.00;;
46815;SDS011;32787;53.316;8.670;2023-09-30T00:51:28;15.07;;;4.45;;
46815;SDS011;32787;53.316;8.670;2023-09-30T00:53:56;15.25;;;4.50;;
46815;SDS011;32787;53.316;8.670;2023-09-30T00:56:25;18.92;;;4.70;;
46815;SDS011;32787;53.316;8.670;2023-09-30T00:58:52;17.33;;;4.32;;
46815;SDS011;32787;53.316;8.670;2023-09-30T01:01:18;21.75;;;4.80;;
46815;SDS011;32787;53.316;8.670;2023-09-30T01:03:47;15.25;;;5.10;;
46815;SDS011;32787;53.316;8.670;2023-09-30T01:06:14;16.10;;;4.43;;
46815;SDS011;32787;53.316;8.670;2023-09-30T01:08:39;19.45;;;5.10;;
46815;SDS011;32787;53.316;8.670;2023-09-30T01:11:06;18.17;;;4.90;;
46815;SDS011;32787;53.316;8.670;2023-09-30T01:13:33;21.17;;;4.80;;
46815;SDS011;32787;53.316;8.670;2023-09-30T01:16:05;21.10;;;4.93;;
46815;SDS011;32787;53.316;8.670;2023-09-30T01:18:37;21.33;;;5.38;;
46815;SDS011;32787;53.316;8.670;2023-09-30T01:21:07;21.48;;;5.35;;
46815;SDS011;32787;53.316;8.670;2023-09-30T01:23:34;17.40;;;4.95;;
46815;SDS011;32787;53.316;8.670;2023-09-30T01:26:03;23.88;;;5.47;;
46815;SDS011;32787;53.316;8.670;2023-09-30T01:28:31;24.10;;;5.70;;
46815;SDS011;32787;53.316;8.670;2023-09-30T01:30:57;20.05;;;5.28;;
46815;SDS011;32787;53.316;8.670;2023-09-30T01:33:23;17.08;;;5.00;;
46815;SDS011;32787;53.316;8.670;2023-09-30T01:35:49;15.02;;;4.57;;
46815;SDS011;32787;53.316;8.670;2023-09-30T01:38:15;23.42;;;5.00;;
46815;SDS011;32787;53.316;8.670;2023-09-30T01:40:40;22.17;;;5.18;;
46815;SDS011;32787;53.316;8.670;2023-09-30T01:43:07;18.58;;;4.78;;
46815;SDS011;32787;53.316;8.670;2023-09-30T01:45:33;20.33;;;5.25;;
46815;SDS011;32787;53.316;8.670;2023-09-30T01:48:00;24.17;;;5.57;;
46815;SDS011;32787;53.316;8.670;2023-09-30T01:50:26;21.73;;;4.68;;
46815;SDS011;32787;53.316;8.670;2023-09-30T01:52:51;14.05;;;4.65;;
46815;SDS011;32787;53.316;8.670;2023-09-30T01:55:17;23.70;;;5.72;;
46815;SDS011;32787;53.316;8.670;2023-09-30T01:57:42;24.65;;;5.78;;
46815;SDS011;32787;53.316;8.670;2023-09-30T02:00:08;17.98;;;5.68;;
46815;SDS011;32787;53.316;8.670;2023-09-30T02:02:34;21.40;;;5.68;;
46815;SDS011;32787;53.316;8.670;2023-09-30T02:05:01;24.20;;;5.93;;
46815;SDS011;32787;53.316;8.670;2023-09-30T02:07:27;17.30;;;5.63;;
46815;SDS011;32787;53.316;8.670;2023-09-30T02:09:54;13.77;;;5.63;;
46815;SDS011;32787;53.316;8.670;2023-09-30T02:12:20;20.83;;;5.90;;
46815;SDS011;32787;53.316;8.670;2023-09-30T02:14:46;19.27;;;5.50;;
46815;SDS011;32787;53.316;8.670;2023-09-30T02:17:12;25.27;;;6.90;;
46815;SDS011;32787;53.316;8.670;2023-09-30T02:19:38;21.27;;;5.68;;
46815;SDS011;32787;53.316;8.670;2023-09-30T02:22:05;16.48;;;5.72;;
46815;SDS011;32787;53.316;8.670;2023-09-30T02:24:31;20.48;;;5.40;;
46815;SDS011;32787;53.316;8.670;2023-09-30T02:26:57;19.40;;;6.78;;
46815;SDS011;32787;53.316;8.670;2023-09-30T02:29:23;16.23;;;6.47;;
46815;SDS011;32787;53.316;8.670;2023-09-30T02:31:49;22.75;;;5.97;;
46815;SDS011;32787;53.316;8.670;2023-09-30T02:34:15;21.08;;;5.60;;
46815;SDS011;32787;53.316;8.670;2023-09-30T02:36:40;25.70;;;6.82;;
46815;SDS011;32787;53.316;8.670;2023-09-30T02:39:07;20.33;;;5.65;;
46815;SDS011;32787;53.316;8.670;2023-09-30T02:41:34;22.02;;;6.22;;
46815;SDS011;32787;53.316;8.670;2023-09-30T02:44:00;20.05;;;5.88;;
46815;SDS011;32787;53.316;8.670;2023-09-30T02:46:26;20.45;;;6.90;;
46815;SDS011;32787;53.316;8.670;2023-09-30T02:48:53;20.30;;;6.03;;
46815;SDS011;32787;53.316;8.670;2023-09-30T02:51:19;22.48;;;6.15;;
46815;SDS011;32787;53.316;8.670;2023-09-30T02:53:45;23.70;;;5.63;;
46815;SDS011;32787;53.316;8.670;2023-09-30T02:56:13;22.15;;;5.55;;
46815;SDS011;32787;53.316;8.670;2023-09-30T02:58:39;15.15;;;5.35;;
46815;SDS011;32787;53.316;8.670;2023-09-30T03:01:05;22.05;;;6.20;;
46815;SDS011;32787;53.316;8.670;2023-09-30T03:03:32;21.30;;;6.28;;
46815;SDS011;32787;53.316;8.670;2023-09-30T03:05:58;20.95;;;5.38;;
46815;SDS011;32787;53.316;8.670;2023-09-30T03:08:25;23.40;;;6.70;;
46815;SDS011;32787;53.316;8.670;2023-09-30T03:10:51;17.08;;;5.20;;
46815;SDS011;32787;53.316;8.670;2023-09-30T03:13:17;19.83;;;5.57;;
46815;SDS011;32787;53.316;8.670;2023-09-30T03:15:45;23.80;;;5.45;;
46815;SDS011;32787;53.316;8.670;2023-09-30T03:18:11;16.80;;;5.43;;
46815;SDS011;32787;53.316;8.670;2023-09-30T03:20:39;17.23;;;5.80;;
46815;SDS011;32787;53.316;8.670;2023-09-30T03:23:05;16.92;;;5.60;;
46815;SDS011;32787;53.316;8.670;2023-09-30T03:25:30;20.60;;;5.80;;
46815;SDS011;32787;53.316;8.670;2023-09-30T03:27:57;20.45;;;6.45;;
46815;SDS011;32787;53.316;8.670;2023-09-30T03:30:23;24.52;;;6.68;;
46815;SDS011;32787;53.316;8.670;2023-09-30T03:32:49;20.40;;;6.22;;
46815;SDS011;32787;53.316;8.670;2023-09-30T03:35:15;20.92;;;6.88;;
46815;SDS011;32787;53.316;8.670;2023-09-30T03:37:43;20.80;;;6.35;;
46815;SDS011;32787;53.316;8.670;2023-09-30T03:40:10;22.27;;;6.25;;
46815;SDS011;32787;53.316;8.670;2023-09-30T03:42:39;20.75;;;6.85;;
46815;SDS011;32787;53.316;8.670;2023-09-30T03:45:08;24.15;;;6.32;;
46815;SDS011;32787;53.316;8.670;2023-09-30T03:47:37;25.13;;;6.60;;
46815;SDS011;32787;53.316;8.670;2023-09-30T03:50:05;25.88;;;7.00;;
46815;SDS011;32787;53.316;8.670;2023-09-30T03:52:38;23.15;;;6.70;;
46815;SDS011;32787;53.316;8.670;2023-09-30T03:55:04;23.33;;;6.43;;
46815;SDS011;32787;53.316;8.670;2023-09-30T03:57:33;20.98;;;5.82;;
46815;SDS011;32787;53.316;8.670;2023-09-30T03:59:59;15.35;;;5.13;;
46815;SDS011;32787;53.316;8.670;2023-09-30T04:02:26;18.27;;;5.45;;
46815;SDS011;32787;53.316;8.670;2023-09-30T04:04:52;24.65;;;7.60;;
46815;SDS011;32787;53.316;8.670;2023-09-30T04:07:20;22.90;;;6.38;;
46815;SDS011;32787;53.316;8.670;2023-09-30T04:09:46;13.75;;;5.22;;
46815;SDS011;32787;53.316;8.670;2023-09-30T04:12:12;20.65;;;6.82;;
46815;SDS011;32787;53.316;8.670;2023-09-30T04:14:37;15.90;;;5.68;;
46815;SDS011;32787;53.316;8.670;2023-09-30T04:17:04;19.42;;;6.43;;
46815;SDS011;32787;53.316;8.670;2023-09-30T04:19:30;17.70;;;5.85;;
46815;SDS011;32787;53.316;8.670;2023-09-30T04:21:55;17.42;;;6.78;;
46815;SDS011;32787;53.316;8.670;2023-09-30T04:24:22;19.35;;;7.35;;
46815;SDS011;32787;53.316;8.670;2023-09-30T04:26:47;20.02;;;6.10;;
46815;SDS011;32787;53.316;8.670;2023-09-30T04:29:15;21.55;;;6.75;;
46815;SDS011;32787;53.316;8.670;2023-09-30T04:31:41;22.08;;;6.38;;
46815;SDS011;32787;53.316;8.670;2023-09-30T04:34:06;18.00;;;6.43;;
46815;SDS011;32787;53.316;8.670;2023-09-30T04:36:32;21.05;;;6.97;;
46815;SDS011;32787;53.316;8.670;2023-09-30T04:39:00;23.90;;;6.95;;
46815;SDS011;32787;53.316;8.670;2023-09-30T04:41:26;20.55;;;7.47;;
46815;SDS011;32787;53.316;8.670;2023-09-30T04:43:51;21.98;;;6.63;;
46815;SDS011;32787;53.316;8.670;2023-09-30T04:46:17;21.10;;;6.90;;
46815;SDS011;32787;53.316;8.670;2023-09-30T04:48:47;21.60;;;6.50;;
46815;SDS011;32787;53.316;8.670;2023-09-30T04:51:13;19.83;;;7.25;;
46815;SDS011;32787;53.316;8.670;2023-09-30T04:53:41;19.40;;;6.28;;
46815;SDS011;32787;53.316;8.670;2023-09-30T04:56:07;22.73;;;6.50;;
46815;SDS011;32787;53.316;8.670;2023-09-30T04:58:32;15.77;;;6.60;;
46815;SDS011;32787;53.316;8.670;2023-09-30T05:00:58;21.15;;;6.68;;
46815;SDS011;32787;53.316;8.670;2023-09-30T05:03:23;23.92;;;7.65;;
46815;SDS011;32787;53.316;8.670;2023-09-30T05:05:50;19.98;;;6.63;;
46815;SDS011;32787;53.316;8.670;2023-09-30T05:08:23;17.52;;;6.50;;
46815;SDS011;32787;53.316;8.670;2023-09-30T05:10:49;17.08;;;6.28;;
46815;SDS011;32787;53.316;8.670;2023-09-30T05:13:15;23.20;;;6.32;;
46815;SDS011;32787;53.316;8.670;2023-09-30T05:15:40;20.13;;;7.25;;
46815;SDS011;32787;53.316;8.670;2023-09-30T05:18:07;18.92;;;6.60;;
46815;SDS011;32787;53.316;8.670;2023-09-30T05:20:34;22.08;;;7.43;;
46815;SDS011;32787;53.316;8.670;2023-09-30T05:23:02;18.10;;;6.03;;
46815;SDS011;32787;53.316;8.670;2023-09-30T05:25:28;21.25;;;5.93;;
46815;SDS011;32787;53.316;8.670;2023-09-30T05:27:53;17.45;;;5.97;;
46815;SDS011;32787;53.316;8.670;2023-09-30T05:30:19;14.55;;;5.53;;
46815;SDS011;32787;53.316;8.670;2023-09-30T05:32:45;18.95;;;6.30;;
46815;SDS011;32787;53.316;8.670;2023-09-30T05:35:11;18.58;;;5.93;;
46815;SDS011;32787;53.316;8.670;2023-09-30T05:37:42;15.82;;;5.15;;
46815;SDS011;32787;53.316;8.670;2023-09-30T05:40:08;16.10;;;5.75;;
46815;SDS011;32787;53.316;8.670;2023-09-30T05:42:46;19.58;;;6.10;;
46815;SDS011;32787;53.316;8.670;2023-09-30T05:45:14;19.20;;;5.75;;
46815;SDS011;32787;53.316;8.670;2023-09-30T05:47:41;20.67;;;6.78;;
46815;SDS011;32787;53.316;8.670;2023-09-30T05:50:07;18.00;;;5.75;;
46815;SDS011;32787;53.316;8.670;2023-09-30T05:52:34;17.42;;;6.05;;
46815;SDS011;32787;53.316;8.670;2023-09-30T05:55:01;18.25;;;5.60;;
46815;SDS011;32787;53.316;8.670;2023-09-30T05:57:27;19.65;;;5.55;;
46815;SDS011;32787;53.316;8.670;2023-09-30T05:59:53;17.45;;;6.38;;
46815;SDS011;32787;53.316;8.670;2023-09-30T06:02:19;17.15;;;5.22;;
46815;SDS011;32787;53.316;8.670;2023-09-30T06:04:45;15.65;;;5.40;;
46815;SDS011;32787;53.316;8.670;2023-09-30T06:07:11;17.63;;;5.50;;
46815;SDS011;32787;53.316;8.670;2023-09-30T06:09:37;20.20;;;6.45;;
46815;SDS011;32787;53.316;8.670;2023-09-30T06:12:03;19.92;;;6.18;;
46815;SDS011;32787;53.316;8.670;2023-09-30T06:14:31;14.07;;;5.75;;
46815;SDS011;32787;53.316;8.670;2023-09-30T06:16:57;17.65;;;6.30;;
46815;SDS011;32787;53.316;8.670;2023-09-30T06:19:24;20.25;;;6.82;;
46815;SDS011;32787;53.316;8.670;2023-09-30T06:21:51;18.52;;;6.25;;
46815;SDS011;32787;53.316;8.670;2023-09-30T06:24:17;21.70;;;6.43;;
46815;SDS011;32787;53.316;8.670;2023-09-30T06:26:44;18.92;;;6.60;;
46815;SDS011;32787;53.316;8.670;2023-09-30T06:29:10;19.92;;;7.13;;
46815;SDS011;32787;53.316;8.670;2023-09-30T06:31:36;16.02;;;6.13;;
46815;SDS011;32787;53.316;8.670;2023-09-30T06:34:02;17.08;;;6.15;;
46815;SDS011;32787;53.316;8.670;2023-09-30T06:36:29;20.50;;;7.55;;
46815;SDS011;32787;53.316;8.670;2023-09-30T06:38:55;21.02;;;5.70;;
46815;SDS011;32787;53.316;8.670;2023-09-30T06:41:20;24.80;;;6.35;;
46815;SDS011;32787;53.316;8.670;2023-09-30T06:43:46;14.32;;;5.40;;
46815;SDS011;32787;53.316;8.670;2023-09-30T06:46:12;23.05;;;6.20;;
46815;SDS011;32787;53.316;8.670;2023-09-30T06:48:38;19.80;;;6.22;;
46815;SDS011;32787;53.316;8.670;2023-09-30T06:51:07;18.85;;;6.93;;
46815;SDS011;32787;53.316;8.670;2023-09-30T06:53:33;15.35;;;6.53;;
46815;SDS011;32787;53.316;8.670;2023-09-30T06:55:58;19.38;;;6.10;;
46815;SDS011;32787;53.316;8.670;2023-09-30T06:58:24;23.73;;;6.03;;
46815;SDS011;32787;53.316;8.670;2023-09-30T07:00:50;21.75;;;5.85;;
46815;SDS011;32787;53.316;8.670;2023-09-30T07:03:17;18.98;;;6.07;;
46815;SDS011;32787;53.316;8.670;2023-09-30T07:05:44;20.35;;;6.32;;
46815;SDS011;32787;53.316;8.670;2023-09-30T07:08:10;18.80;;;6.03;;
46815;SDS011;32787;53.316;8.670;2023-09-30T07:10:36;20.08;;;6.78;;
46815;SDS011;32787;53.316;8.670;2023-09-30T07:13:02;20.13;;;6.32;;
46815;SDS011;32787;53.316;8.670;2023-09-30T07:15:28;18.25;;;5.65;;
46815;SDS011;32787;53.316;8.670;2023-09-30T07:17:54;19.52;;;5.90;;
46815;SDS011;32787;53.316;8.670;2023-09-30T07:20:20;17.30;;;5.82;;
46815;SDS011;32787;53.316;8.670;2023-09-30T07:22:47;27.90;;;5.95;;
46815;SDS011;32787;53.316;8.670;2023-09-30T07:25:13;25.20;;;5.75;;
46815;SDS011;32787;53.316;8.670;2023-09-30T07:27:43;28.83;;;6.40;;
46815;SDS011;32787;53.316;8.670;2023-09-30T07:30:10;17.17;;;6.07;;
46815;SDS011;32787;53.316;8.670;2023-09-30T07:32:37;20.10;;;6.03;;
46815;SDS011;32787;53.316;8.670;2023-09-30T07:35:03;25.40;;;6.30;;
46815;SDS011;32787;53.316;8.670;2023-09-30T07:37:29;17.15;;;5.68;;
46815;SDS011;32787;53.316;8.670;2023-09-30T07:39:54;23.17;;;6.25;;
46815;SDS011;32787;53.316;8.670;2023-09-30T07:42:20;19.75;;;5.85;;
46815;SDS011;32787;53.316;8.670;2023-09-30T07:44:47;18.92;;;5.80;;
46815;SDS011;32787;53.316;8.670;2023-09-30T07:47:13;19.65;;;7.15;;
46815;SDS011;32787;53.316;8.670;2023-09-30T07:49:39;15.82;;;5.97;;
46815;SDS011;32787;53.316;8.670;2023-09-30T07:52:05;16.75;;;6.93;;
46815;SDS011;32787;53.316;8.670;2023-09-30T07:54:31;20.42;;;6.07;;
46815;SDS011;32787;53.316;8.670;2023-09-30T07:56:57;17.20;;;5.45;;
46815;SDS011;32787;53.316;8.670;2023-09-30T07:59:23;21.70;;;5.22;;
46815;SDS011;32787;53.316;8.670;2023-09-30T08:01:50;23.58;;;5.82;;
46815;SDS011;32787;53.316;8.670;2023-09-30T08:04:17;21.17;;;5.65;;
46815;SDS011;32787;53.316;8.670;2023-09-30T08:06:43;14.93;;;4.82;;
46815;SDS011;32787;53.316;8.670;2023-09-30T08:09:09;18.65;;;5.75;;
46815;SDS011;32787;53.316;8.670;2023-09-30T08:11:38;24.08;;;5.00;;
46815;SDS011;32787;53.316;8.670;2023-09-30T08:14:04;15.75;;;5.03;;
46815;SDS011;32787;53.316;8.670;2023-09-30T08:16:38;16.45;;;4.43;;
46815;SDS011;32787;53.316;8.670;2023-09-30T08:19:04;17.65;;;4.80;;
46815;SDS011;32787;53.316;8.670;2023-09-30T08:21:30;17.65;;;4.60;;
46815;SDS011;32787;53.316;8.670;2023-09-30T08:23:56;18.75;;;4.97;;
46815;SDS011;32787;53.316;8.670;2023-09-30T08:26:22;15.38;;;4.72;;
46815;SDS011;32787;53.316;8.670;2023-09-30T08:28:48;16.13;;;4.93;;
46815;SDS011;32787;53.316;8.670;2023-09-30T08:31:13;13.68;;;4.60;;
46815;SDS011;32787;53.316;8.670;2023-09-30T08:33:39;16.10;;;5.57;;
46815;SDS011;32787;53.316;8.670;2023-09-30T08:36:06;16.45;;;5.32;;
46815;SDS011;32787;53.316;8.670;2023-09-30T08:38:34;15.95;;;4.15;;
46815;SDS011;32787;53.316;8.670;2023-09-30T08:41:00;13.48;;;4.20;;
46815;SDS011;32787;53.316;8.670;2023-09-30T08:43:27;17.55;;;4.53;;
46815;SDS011;32787;53.316;8.670;2023-09-30T08:45:55;22.05;;;4.28;;
46815;SDS011;32787;53.316;8.670;2023-09-30T08:48:23;15.93;;;4.25;;
46815;SDS011;32787;53.316;8.670;2023-09-30T08:50:51;16.70;;;4.55;;
46815;SDS011;32787;53.316;8.670;2023-09-30T08:53:19;12.73;;;4.00;;
46815;SDS011;32787;53.316;8.670;2023-09-30T08:55:46;10.93;;;3.88;;
46815;SDS011;32787;53.316;8.670;2023-09-30T08:58:12;15.13;;;3.95;;
46815;SDS011;32787;53.316;8.670;2023-09-30T09:00:38;17.58;;;4.30;;
46815;SDS011;32787;53.316;8.670;2023-09-30T09:03:07;14.57;;;4.00;;
46815;SDS011;32787;53.316;8.670;2023-09-30T09:05:33;16.25;;;3.92;;
46815;SDS011;32787;53.316;8.670;2023-09-30T09:07:59;13.05;;;4.15;;
46815;SDS011;32787;53.316;8.670;2023-09-30T09:10:25;16.60;;;4.00;;
46815;SDS011;32787;53.316;8.670;2023-09-30T09:12:59;14.07;;;4.15;;
46815;SDS011;32787;53.316;8.670;2023-09-30T09:15:26;13.13;;;3.50;;
46815;SDS011;32787;53.316;8.670;2023-09-30T09:17:53;16.33;;;3.60;;
46815;SDS011;32787;53.316;8.670;2023-09-30T09:20:23;12.13;;;3.63;;
46815;SDS011;32787;53.316;8.670;2023-09-30T09:22:54;11.68;;;3.42;;
46815;SDS011;32787;53.316;8.670;2023-09-30T09:25:24;13.00;;;3.33;;
46815;SDS011;32787;53.316;8.670;2023-09-30T09:27:50;13.23;;;3.77;;
46815;SDS011;32787;53.316;8.670;2023-09-30T09:30:23;16.92;;;3.22;;
46815;SDS011;32787;53.316;8.670;2023-09-30T09:32:54;14.05;;;3.13;;
46815;SDS011;32787;53.316;8.670;2023-09-30T09:35:30;12.10;;;3.42;;
46815;SDS011;32787;53.316;8.670;2023-09-30T09:38:04;11.02;;;3.42;;
46815;SDS011;32787;53.316;8.670;2023-09-30T09:40:32;12.98;;;3.47;;
46815;SDS011;32787;53.316;8.670;2023-09-30T09:42:59;11.13;;;2.65;;
46815;SDS011;32787;53.316;8.670;2023-09-30T09:45:30;13.77;;;2.90;;
46815;SDS011;32787;53.316;8.670;2023-09-30T09:48:08;15.57;;;3.47;;
46815;SDS011;32787;53.316;8.670;2023-09-30T09:50:35;17.73;;;4.78;;
46815;SDS011;32787;53.316;8.670;2023-09-30T09:53:01;12.38;;;2.83;;
46815;SDS011;32787;53.316;8.670;2023-09-30T09:55:28;19.10;;;3.22;;
46815;SDS011;32787;53.316;8.670;2023-09-30T09:57:54;12.27;;;3.35;;
46815;SDS011;32787;53.316;8.670;2023-09-30T10:00:21;10.00;;;2.70;;
46815;SDS011;32787;53.316;8.670;2023-09-30T10:02:49;15.73;;;3.13;;
46815;SDS011;32787;53.316;8.670;2023-09-30T10:05:16;15.48;;;3.50;;
46815;SDS011;32787;53.316;8.670;2023-09-30T10:10:31;16.35;;;2.97;;
46815;SDS011;32787;53.316;8.670;2023-09-30T10:13:02;11.00;;;2.40;;
46815;SDS011;32787;53.316;8.670;2023-09-30T10:17:57;9.20;;;2.22;;
46815;SDS011;32787;53.316;8.670;2023-09-30T10:20:34;11.68;;;2.25;;
46815;SDS011;32787;53.316;8.670;2023-09-30T10:25:42;14.60;;;2.40;;
46815;SDS011;32787;53.316;8.670;2023-09-30T10:31:07;15.27;;;2.50;;
46815;SDS011;32787;53.316;8.670;2023-09-30T10:38:57;10.88;;;2.50;;
46815;SDS011;32787;53.316;8.670;2023-09-30T10:46:58;12.15;;;2.20;;
46815;SDS011;32787;53.316;8.670;2023-09-30T10:51:58;10.68;;;2.22;;
46815;SDS011;32787;53.316;8.670;2023-09-30T10:54:25;13.45;;;2.55;;
46815;SDS011;32787;53.316;8.670;2023-09-30T10:56:52;11.30;;;2.28;;
46815;SDS011;32787;53.316;8.670;2023-09-30T10:59:19;9.10;;;1.90;;
46815;SDS011;32787;53.316;8.670;2023-09-30T11:01:49;10.40;;;2.05;;
46815;SDS011;32787;53.316;8.670;2023-09-30T11:04:15;14.30;;;2.17;;
46815;SDS011;32787;53.316;8.670;2023-09-30T11:06:41;10.63;;;2.10;;
46815;SDS011;32787;53.316;8.670;2023-09-30T11:09:07;9.85;;;2.17;;
46815;SDS011;32787;53.316;8.670;2023-09-30T11:11:40;12.77;;;2.53;;
46815;SDS011;32787;53.316;8.670;2023-09-30T11:16:49;10.30;;;1.75;;
46815;SDS011;32787;53.316;8.670;2023-09-30T11:19:16;9.32;;;1.98;;
46815;SDS011;32787;53.316;8.670;2023-09-30T11:21:42;9.05;;;1.60;;
46815;SDS011;32787;53.316;8.670;2023-09-30T11:24:11;16.95;;;2.42;;
46815;SDS011;32787;53.316;8.670;2023-09-30T11:26:38;6.35;;;1.77;;
46815;SDS011;32787;53.316;8.670;2023-09-30T11:29:06;10.80;;;1.98;;
46815;SDS011;32787;53.316;8.670;2023-09-30T11:31:36;6.90;;;1.58;;
46815;SDS011;32787;53.316;8.670;2023-09-30T11:34:03;13.20;;;1.70;;
46815;SDS011;32787;53.316;8.670;2023-09-30T11:36:33;6.85;;;1.65;;
46815;SDS011;32787;53.316;8.670;2023-09-30T11:39:00;10.18;;;2.22;;
46815;SDS011;32787;53.316;8.670;2023-09-30T11:41:37;12.27;;;2.10;;
46815;SDS011;32787;53.316;8.670;2023-09-30T11:44:05;13.38;;;2.15;;
46815;SDS011;32787;53.316;8.670;2023-09-30T11:51:51;6.25;;;1.50;;
46815;SDS011;32787;53.316;8.670;2023-09-30T11:54:17;8.27;;;1.27;;
46815;SDS011;32787;53.316;8.670;2023-09-30T11:56:43;12.98;;;2.33;;
46815;SDS011;32787;53.316;8.670;2023-09-30T11:59:10;9.07;;;1.80;;
46815;SDS011;32787;53.316;8.670;2023-09-30T12:01:39;8.63;;;1.83;;
46815;SDS011;32787;53.316;8.670;2023-09-30T12:04:05;9.17;;;1.50;;
46815;SDS011;32787;53.316;8.670;2023-09-30T12:06:31;9.65;;;1.73;;
46815;SDS011;32787;53.316;8.670;2023-09-30T12:08:59;9.18;;;1.80;;
46815;SDS011;32787;53.316;8.670;2023-09-30T12:11:25;7.68;;;1.50;;
46815;SDS011;32787;53.316;8.670;2023-09-30T12:13:50;6.70;;;1.50;;
46815;SDS011;32787;53.316;8.670;2023-09-30T12:16:17;7.47;;;1.50;;
46815;SDS011;32787;53.316;8.670;2023-09-30T12:18:42;8.40;;;1.50;;
46815;SDS011;32787;53.316;8.670;2023-09-30T12:21:09;10.68;;;1.60;;
46815;SDS011;32787;53.316;8.670;2023-09-30T12:23:35;8.88;;;1.65;;
46815;SDS011;32787;53.316;8.670;2023-09-30T12:26:02;8.25;;;1.40;;
46815;SDS011;32787;53.316;8.670;2023-09-30T12:28:30;7.80;;;1.40;;
46815;SDS011;32787;53.316;8.670;2023-09-30T12:31:00;8.93;;;1.48;;
46815;SDS011;32787;53.316;8.670;2023-09-30T12:33:30;8.50;;;1.88;;
46815;SDS011;32787;53.316;8.670;2023-09-30T12:35:56;8.10;;;1.75;;
46815;SDS011;32787;53.316;8.670;2023-09-30T12:38:25;9.03;;;1.47;;
46815;SDS011;32787;53.316;8.670;2023-09-30T12:40:52;8.38;;;1.85;;
46815;SDS011;32787;53.316;8.670;2023-09-30T12:43:19;7.78;;;1.88;;
46815;SDS011;32787;53.316;8.670;2023-09-30T12:45:45;6.88;;;1.67;;
46815;SDS011;32787;53.316;8.670;2023-09-30T12:48:12;4.72;;;1.08;;
46815;SDS011;32787;53.316;8.670;2023-09-30T12:50:38;10.77;;;1.90;;
46815;SDS011;32787;53.316;8.670;2023-09-30T12:53:03;9.32;;;1.80;;
46815;SDS011;32787;53.316;8.670;2023-09-30T12:55:30;9.52;;;1.58;;
46815;SDS011;32787;53.316;8.670;2023-09-30T12:57:55;7.20;;;1.30;;
46815;SDS011;32787;53.316;8.670;2023-09-30T13:00:21;7.53;;;1.55;;
46815;SDS011;32787;53.316;8.670;2023-09-30T13:02:47;13.60;;;1.88;;
46815;SDS011;32787;53.316;8.670;2023-09-30T13:05:13;11.88;;;2.10;;
46815;SDS011;32787;53.316;8.670;2023-09-30T13:07:41;8.00;;;1.63;;
46815;SDS011;32787;53.316;8.670;2023-09-30T13:10:07;7.40;;;1.42;;
46815;SDS011;32787;53.316;8.670;2023-09-30T13:12:33;8.10;;;1.40;;
46815;SDS011;32787;53.316;8.670;2023-09-30T13:14:59;9.73;;;1.67;;
46815;SDS011;32787;53.316;8.670;2023-09-30T13:17:25;6.88;;;1.40;;
46815;SDS011;32787;53.316;8.670;2023-09-30T13:19:51;6.78;;;1.40;;
46815;SDS011;32787;53.316;8.670;2023-09-30T13:22:17;9.10;;;1.58;;
46815;SDS011;32787;53.316;8.670;2023-09-30T13:24:43;6.88;;;1.40;;
46815;SDS011;32787;53.316;8.670;2023-09-30T13:27:09;10.20;;;1.38;;
46815;SDS011;32787;53.316;8.670;2023-09-30T13:29:34;7.20;;;1.80;;
46815;SDS011;32787;53.316;8.670;2023-09-30T13:32:00;5.60;;;1.45;;
46815;SDS011;32787;53.316;8.670;2023-09-30T13:34:26;8.32;;;2.22;;
46815;SDS011;32787;53.316;8.670;2023-09-30T13:36:52;8.70;;;1.38;;
46815;SDS011;32787;53.316;8.670;2023-09-30T13:39:19;9.65;;;1.58;;
46815;SDS011;32787;53.316;8.670;2023-09-30T13:41:45;7.38;;;1.52;;
46815;SDS011;32787;53.316;8.670;2023-09-30T13:44:12;7.35;;;1.45;;
46815;SDS011;32787;53.316;8.670;2023-09-30T13:46:38;8.75;;;1.75;;
46815;SDS011;32787;53.316;8.670;2023-09-30T13:49:04;10.95;;;1.92;;
46815;SDS011;32787;53.316;8.670;2023-09-30T13:51:29;9.25;;;1.55;;
46815;SDS011;32787;53.316;8.670;2023-09-30T13:53:55;13.90;;;2.38;;
46815;SDS011;32787;53.316;8.670;2023-09-30T13:56:21;7.65;;;1.35;;
46815;SDS011;32787;53.316;8.670;2023-09-30T13:58:47;7.80;;;1.35;;
46815;SDS011;32787;53.316;8.670;2023-09-30T14:01:13;11.38;;;2.10;;
46815;SDS011;32787;53.316;8.670;2023-09-30T14:03:40;6.90;;;1.40;;
46815;SDS011;32787;53.316;8.670;2023-09-30T14:06:12;7.85;;;1.70;;
46815;SDS011;32787;53.316;8.670;2023-09-30T14:08:38;7.57;;;1.52;;
46815;SDS011;32787;53.316;8.670;2023-09-30T14:11:08;8.38;;;1.80;;
46815;SDS011;32787;53.316;8.670;2023-09-30T14:13:34;7.50;;;2.13;;
46815;SDS011;32787;53.316;8.670;2023-09-30T14:16:00;8.32;;;2.03;;
46815;SDS011;32787;53.316;8.670;2023-09-30T14:18:26;7.65;;;1.15;;
46815;SDS011;32787;53.316;8.670;2023-09-30T14:20:52;12.60;;;1.92;;
46815;SDS011;32787;53.316;8.670;2023-09-30T14:23:18;6.40;;;1.38;;
46815;SDS011;32787;53.316;8.670;2023-09-30T14:25:43;7.75;;;1.73;;
46815;SDS011;32787;53.316;8.670;2023-09-30T14:28:09;7.03;;;1.33;;
46815;SDS011;32787;53.316;8.670;2023-09-30T14:30:35;10.32;;;1.92;;
46815;SDS011;32787;53.316;8.670;2023-09-30T14:33:01;6.15;;;1.35;;
46815;SDS011;32787;53.316;8.670;2023-09-30T14:35:28;10.73;;;1.83;;
46815;SDS011;32787;53.316;8.670;2023-09-30T14:37:54;8.90;;;1.35;;
46815;SDS011;32787;53.316;8.670;2023-09-30T14:40:19;6.28;;;1.30;;
46815;SDS011;32787;53.316;8.670;2023-09-30T14:42:45;8.00;;;1.70;;
46815;SDS011;32787;53.316;8.670;2023-09-30T14:45:11;7.72;;;1.50;;
46815;SDS011;32787;53.316;8.670;2023-09-30T14:47:36;7.40;;;1.42;;
46815;SDS011;32787;53.316;8.670;2023-09-30T14:50:03;8.65;;;1.58;;
46815;SDS011;32787;53.316;8.670;2023-09-30T14:52:32;7.22;;;1.20;;
46815;SDS011;32787;53.316;8.670;2023-09-30T14:54:57;8.18;;;1.50;;
46815;SDS011;32787;53.316;8.670;2023-09-30T14:57:23;11.27;;;1.65;;
46815;SDS011;32787;53.316;8.670;2023-09-30T14:59:50;8.50;;;1.45;;
46815;SDS011;32787;53.316;8.670;2023-09-30T15:02:15;10.30;;;1.60;;
46815;SDS011;32787;53.316;8.670;2023-09-30T15:04:41;7.57;;;1.50;;
46815;SDS011;32787;53.316;8.670;2023-09-30T15:07:07;9.18;;;1.50;;